This is the latest recevied weather packets stored in our database for station/object SV9TNF-51. If no packets are shown the sender has not sent any weather packets the latest 10 day(s).
| Time | Temp. | Humidity | Pressure | Rain* | Wind** | Luminosity | Snow |
|---|---|---|---|---|---|---|---|
| 1788273499 | 33.33° C | 40% | 1011.2 hPa | 0 mm | 1.34 m/s, 124° | - | - |
| 1788273199 | 32.78° C | 40% | 1010.8 hPa | 0 mm | 2.24 m/s, 133° | - | - |
| 1788272899 | 32.22° C | 40% | 1010.8 hPa | 0 mm | 10.28 m/s, 328° | - | - |
| 1788272599 | 32.78° C | 41% | 1011.2 hPa | 0 mm | 4.02 m/s, 299° | - | - |
| 1788272298 | 32.78° C | 41% | 1011.2 hPa | 0 mm | 2.24 m/s, 60° | - | - |
| 1788271998 | 32.78° C | 41% | 1011.2 hPa | 0 mm | 0.89 m/s, 353° | - | - |
| 1788271698 | 33.33° C | 42% | 1011.2 hPa | 0 mm | 2.68 m/s, 134° | - | - |
| 1788271398 | 32.78° C | 42% | 1011.2 hPa | 0 mm | 4.92 m/s, 337° | - | - |
| 1788271098 | 32.22° C | 43% | 1011.2 hPa | 0 mm | 7.15 m/s, 69° | - | - |
| 1788270798 | 32.78° C | 43% | 1011.2 hPa | 0 mm | 8.94 m/s, 358° | - | - |
| 1788270498 | 32.22° C | 44% | 1011.2 hPa | 0 mm | 9.39 m/s, 69° | - | - |
| 1788270198 | 33.33° C | 44% | 1011.2 hPa | 0 mm | 1.34 m/s, 128° | - | - |
| 1788269898 | 33.33° C | 41% | 1011.2 hPa | 0 mm | 1.34 m/s, 159° | - | - |
| 1788269598 | 32.78° C | 44% | 1011.2 hPa | 0 mm | 2.24 m/s, 120° | - | - |
| 1788269297 | 33.33° C | 41% | 1011.2 hPa | 0 mm | 8.05 m/s, 17° | - | - |
| 1788268997 | 33.89° C | 42% | 1011.2 hPa | 0 mm | 3.58 m/s, 124° | - | - |
| 1788268697 | 33.89° C | 41% | 1011.2 hPa | 0 mm | 3.13 m/s, 154° | - | - |
| 1788268397 | 34.44° C | 40% | 1011.2 hPa | 0 mm | 1.34 m/s, 350° | - | - |
| 1788268098 | 33.33° C | 42% | 1011.2 hPa | 0 mm | 10.73 m/s, 340° | - | - |
| 1788267797 | 33.89° C | 39% | 1011.2 hPa | 0 mm | 3.13 m/s, 299° | - | - |
| 1788267497 | 34.44° C | 38% | 1011.2 hPa | 0 mm | 0.89 m/s, 138° | - | - |
| 1788267197 | 34.44° C | 38% | 1011.2 hPa | 0 mm | 2.68 m/s, 125° | - | - |
| 1788266897 | 35° C | 35% | 1011.5 hPa | 0 mm | 4.02 m/s, 332° | - | - |
| 1788266597 | 35.56° C | 35% | 1011.5 hPa | 0 mm | 3.58 m/s, 110° | - | - |
| 1788266297 | 36.11° C | 34% | 1011.5 hPa | 0 mm | 3.13 m/s, 139° | - | - |
* Rain latest hour (hover to see other rain measurements)
** Current wind speed in m/s (hover to see current wind gust speed)